sensor_id;sensor_type;location;lat;lon;timestamp;pressure;altitude;pressure_sealevel;temperature;humidity
14067;BME280;7108;42.684;23.350;2023-06-24T00:01:43;95327.09;;;23.26;100.00
14067;BME280;7108;42.684;23.350;2023-06-24T00:04:09;95314.84;;;23.15;100.00
14067;BME280;7108;42.684;23.350;2023-06-24T00:06:34;95321.69;;;23.23;100.00
14067;BME280;7108;42.684;23.350;2023-06-24T00:08:59;95323.78;;;23.31;100.00
14067;BME280;7108;42.684;23.350;2023-06-24T00:11:29;95327.31;;;23.32;100.00
14067;BME280;7108;42.684;23.350;2023-06-24T00:13:55;95319.75;;;23.36;100.00
14067;BME280;7108;42.684;23.350;2023-06-24T00:16:20;95310.88;;;23.16;100.00
14067;BME280;7108;42.684;23.350;2023-06-24T00:18:55;95325.63;;;23.22;100.00
14067;BME280;7108;42.684;23.350;2023-06-24T00:21:25;95321.50;;;23.30;100.00
14067;BME280;7108;42.684;23.350;2023-06-24T00:23:57;95324.13;;;23.33;100.00
14067;BME280;7108;42.684;23.350;2023-06-24T00:26:23;95312.88;;;23.28;100.00
14067;BME280;7108;42.684;23.350;2023-06-24T00:28:49;95328.22;;;23.41;100.00
14067;BME280;7108;42.684;23.350;2023-06-24T00:31:14;95315.19;;;23.29;100.00
14067;BME280;7108;42.684;23.350;2023-06-24T00:33:39;95316.41;;;23.28;100.00
14067;BME280;7108;42.684;23.350;2023-06-24T00:36:05;95324.47;;;23.35;100.00
14067;BME280;7108;42.684;23.350;2023-06-24T00:38:32;95317.63;;;23.27;100.00
14067;BME280;7108;42.684;23.350;2023-06-24T00:40:58;95311.03;;;23.25;100.00
14067;BME280;7108;42.684;23.350;2023-06-24T00:43:24;95325.09;;;23.27;100.00
14067;BME280;7108;42.684;23.350;2023-06-24T00:45:50;95321.00;;;23.19;100.00
14067;BME280;7108;42.684;23.350;2023-06-24T00:48:16;95323.31;;;23.20;100.00
14067;BME280;7108;42.684;23.350;2023-06-24T00:50:41;95317.38;;;23.22;100.00
14067;BME280;7108;42.684;23.350;2023-06-24T00:53:11;95304.06;;;23.20;100.00
14067;BME280;7108;42.684;23.350;2023-06-24T00:55:37;95321.69;;;23.23;100.00
14067;BME280;7108;42.684;23.350;2023-06-24T00:58:03;95314.41;;;23.16;100.00
14067;BME280;7108;42.684;23.350;2023-06-24T01:00:29;95318.13;;;23.10;100.00
14067;BME280;7108;42.684;23.350;2023-06-24T01:02:55;95316.59;;;23.09;100.00
14067;BME280;7108;42.684;23.350;2023-06-24T01:05:22;95284.06;;;22.92;100.00
14067;BME280;7108;42.684;23.350;2023-06-24T01:07:49;95303.88;;;22.99;100.00
14067;BME280;7108;42.684;23.350;2023-06-24T01:10:20;95303.63;;;22.94;100.00
14067;BME280;7108;42.684;23.350;2023-06-24T01:12:46;95297.44;;;22.90;100.00
14067;BME280;7108;42.684;23.350;2023-06-24T01:15:12;95300.78;;;22.97;100.00
14067;BME280;7108;42.684;23.350;2023-06-24T01:17:45;95299.56;;;22.98;100.00
14067;BME280;7108;42.684;23.350;2023-06-24T01:20:25;95285.88;;;22.82;100.00
14067;BME280;7108;42.684;23.350;2023-06-24T01:24:05;95296.56;;;22.93;100.00
14067;BME280;7108;42.684;23.350;2023-06-24T01:34:28;95316.09;;;22.82;100.00
14067;BME280;7108;42.684;23.350;2023-06-24T01:37:10;95304.44;;;22.78;100.00
14067;BME280;7108;42.684;23.350;2023-06-24T01:40:00;95314.91;;;22.83;100.00
14067;BME280;7108;42.684;23.350;2023-06-24T01:42:35;95311.47;;;22.79;100.00
14067;BME280;7108;42.684;23.350;2023-06-24T01:45:02;95306.63;;;22.71;100.00
14067;BME280;7108;42.684;23.350;2023-06-24T01:47:29;95317.88;;;22.60;100.00
14067;BME280;7108;42.684;23.350;2023-06-24T01:49:56;95333.53;;;22.47;100.00
14067;BME280;7108;42.684;23.350;2023-06-24T01:52:23;95341.25;;;22.37;100.00
14067;BME280;7108;42.684;23.350;2023-06-24T01:54:49;95346.53;;;22.43;100.00
14067;BME280;7108;42.684;23.350;2023-06-24T01:57:17;95329.81;;;22.38;100.00
14067;BME280;7108;42.684;23.350;2023-06-24T01:59:45;95335.75;;;22.37;100.00
14067;BME280;7108;42.684;23.350;2023-06-24T02:02:12;95339.19;;;22.41;100.00
14067;BME280;7108;42.684;23.350;2023-06-24T02:04:40;95343.78;;;22.43;100.00
14067;BME280;7108;42.684;23.350;2023-06-24T02:07:08;95357.44;;;22.47;100.00
14067;BME280;7108;42.684;23.350;2023-06-24T02:09:34;95345.63;;;22.34;100.00
14067;BME280;7108;42.684;23.350;2023-06-24T02:12:02;95370.22;;;22.38;100.00
14067;BME280;7108;42.684;23.350;2023-06-24T02:14:29;95357.38;;;22.35;100.00
14067;BME280;7108;42.684;23.350;2023-06-24T02:16:58;95351.88;;;22.35;100.00
14067;BME280;7108;42.684;23.350;2023-06-24T02:19:27;95350.00;;;22.32;100.00
14067;BME280;7108;42.684;23.350;2023-06-24T02:21:56;95353.84;;;22.34;100.00
14067;BME280;7108;42.684;23.350;2023-06-24T02:24:23;95362.94;;;22.31;100.00
14067;BME280;7108;42.684;23.350;2023-06-24T02:26:49;95362.75;;;22.22;100.00
14067;BME280;7108;42.684;23.350;2023-06-24T02:29:16;95374.47;;;22.23;100.00
14067;BME280;7108;42.684;23.350;2023-06-24T02:31:43;95381.09;;;22.25;100.00
14067;BME280;7108;42.684;23.350;2023-06-24T02:34:08;95394.91;;;22.22;100.00
14067;BME280;7108;42.684;23.350;2023-06-24T02:36:34;95405.91;;;22.22;100.00
14067;BME280;7108;42.684;23.350;2023-06-24T02:38:59;95401.59;;;22.21;100.00
14067;BME280;7108;42.684;23.350;2023-06-24T02:41:25;95391.09;;;22.00;100.00
14067;BME280;7108;42.684;23.350;2023-06-24T02:43:50;95417.09;;;22.11;100.00
14067;BME280;7108;42.684;23.350;2023-06-24T02:46:17;95408.94;;;22.08;100.00
14067;BME280;7108;42.684;23.350;2023-06-24T02:48:45;95408.50;;;22.09;100.00
14067;BME280;7108;42.684;23.350;2023-06-24T02:51:11;95404.25;;;22.08;100.00
14067;BME280;7108;42.684;23.350;2023-06-24T02:53:38;95399.34;;;22.00;100.00
14067;BME280;7108;42.684;23.350;2023-06-24T02:56:04;95409.13;;;22.01;100.00
14067;BME280;7108;42.684;23.350;2023-06-24T02:58:31;95417.25;;;22.04;100.00
14067;BME280;7108;42.684;23.350;2023-06-24T03:00:59;95416.63;;;21.97;100.00
14067;BME280;7108;42.684;23.350;2023-06-24T03:03:26;95418.25;;;21.94;100.00
14067;BME280;7108;42.684;23.350;2023-06-24T03:05:53;95426.22;;;21.89;100.00
14067;BME280;7108;42.684;23.350;2023-06-24T03:08:19;95429.66;;;21.93;100.00
14067;BME280;7108;42.684;23.350;2023-06-24T03:10:44;95421.94;;;21.88;100.00
14067;BME280;7108;42.684;23.350;2023-06-24T03:13:10;95415.97;;;21.74;100.00
14067;BME280;7108;42.684;23.350;2023-06-24T03:15:35;95425.31;;;21.76;100.00
14067;BME280;7108;42.684;23.350;2023-06-24T03:18:01;95428.78;;;21.80;100.00
14067;BME280;7108;42.684;23.350;2023-06-24T03:20:26;95431.09;;;21.81;100.00
14067;BME280;7108;42.684;23.350;2023-06-24T03:22:52;95418.88;;;21.67;100.00
14067;BME280;7108;42.684;23.350;2023-06-24T03:25:17;95427.88;;;21.67;100.00
14067;BME280;7108;42.684;23.350;2023-06-24T03:27:43;95437.59;;;21.72;100.00
14067;BME280;7108;42.684;23.350;2023-06-24T03:30:10;95429.91;;;21.63;100.00
14067;BME280;7108;42.684;23.350;2023-06-24T03:32:36;95442.06;;;21.62;100.00
14067;BME280;7108;42.684;23.350;2023-06-24T03:35:02;95452.75;;;21.76;100.00
14067;BME280;7108;42.684;23.350;2023-06-24T03:37:28;95429.50;;;21.65;100.00
14067;BME280;7108;42.684;23.350;2023-06-24T03:39:55;95467.53;;;21.82;100.00
14067;BME280;7108;42.684;23.350;2023-06-24T03:42:20;95471.75;;;21.86;100.00
14067;BME280;7108;42.684;23.350;2023-06-24T03:44:46;95458.59;;;21.78;100.00
14067;BME280;7108;42.684;23.350;2023-06-24T03:47:11;95462.34;;;21.87;100.00
14067;BME280;7108;42.684;23.350;2023-06-24T03:49:36;95470.97;;;21.86;100.00
14067;BME280;7108;42.684;23.350;2023-06-24T03:52:02;95473.31;;;21.87;100.00
14067;BME280;7108;42.684;23.350;2023-06-24T03:54:29;95466.91;;;21.94;100.00
14067;BME280;7108;42.684;23.350;2023-06-24T03:56:54;95467.16;;;21.99;100.00
14067;BME280;7108;42.684;23.350;2023-06-24T03:59:19;95458.66;;;21.94;100.00
14067;BME280;7108;42.684;23.350;2023-06-24T04:01:45;95451.19;;;21.94;100.00
14067;BME280;7108;42.684;23.350;2023-06-24T04:04:11;95454.66;;;21.98;100.00
14067;BME280;7108;42.684;23.350;2023-06-24T04:06:36;95470.81;;;22.12;100.00
14067;BME280;7108;42.684;23.350;2023-06-24T04:09:01;95457.66;;;22.04;100.00
14067;BME280;7108;42.684;23.350;2023-06-24T04:11:27;95475.38;;;22.19;100.00
14067;BME280;7108;42.684;23.350;2023-06-24T04:13:52;95466.09;;;22.13;100.00
14067;BME280;7108;42.684;23.350;2023-06-24T04:16:18;95468.00;;;22.16;100.00
14067;BME280;7108;42.684;23.350;2023-06-24T04:18:43;95454.97;;;22.20;100.00
14067;BME280;7108;42.684;23.350;2023-06-24T04:21:09;95457.72;;;22.20;100.00
14067;BME280;7108;42.684;23.350;2023-06-24T04:23:34;95464.59;;;22.28;100.00
14067;BME280;7108;42.684;23.350;2023-06-24T04:26:03;95447.09;;;22.22;100.00
14067;BME280;7108;42.684;23.350;2023-06-24T04:28:28;95463.69;;;22.34;100.00
14067;BME280;7108;42.684;23.350;2023-06-24T04:30:54;95455.03;;;22.36;100.00
14067;BME280;7108;42.684;23.350;2023-06-24T04:33:19;95452.53;;;22.41;100.00
14067;BME280;7108;42.684;23.350;2023-06-24T04:35:45;95436.06;;;22.41;100.00
14067;BME280;7108;42.684;23.350;2023-06-24T04:38:11;95429.13;;;22.37;100.00
14067;BME280;7108;42.684;23.350;2023-06-24T04:40:43;95454.97;;;22.55;100.00
14067;BME280;7108;42.684;23.350;2023-06-24T04:43:08;95430.56;;;22.41;100.00
14067;BME280;7108;42.684;23.350;2023-06-24T04:45:33;95451.44;;;22.54;100.00
14067;BME280;7108;42.684;23.350;2023-06-24T04:47:59;95444.66;;;22.59;100.00
14067;BME280;7108;42.684;23.350;2023-06-24T04:50:25;95453.94;;;22.65;100.00
14067;BME280;7108;42.684;23.350;2023-06-24T04:52:54;95458.25;;;22.66;100.00
14067;BME280;7108;42.684;23.350;2023-06-24T04:55:21;95463.75;;;22.66;100.00
14067;BME280;7108;42.684;23.350;2023-06-24T04:57:47;95466.72;;;22.71;100.00
14067;BME280;7108;42.684;23.350;2023-06-24T05:00:13;95467.34;;;22.79;100.00
14067;BME280;7108;42.684;23.350;2023-06-24T05:02:39;95464.59;;;22.79;100.00
14067;BME280;7108;42.684;23.350;2023-06-24T05:05:04;95432.47;;;22.60;100.00
14067;BME280;7108;42.684;23.350;2023-06-24T05:07:30;95448.84;;;22.79;100.00
14067;BME280;7108;42.684;23.350;2023-06-24T05:09:55;95441.91;;;22.75;100.00
14067;BME280;7108;42.684;23.350;2023-06-24T05:12:20;95453.34;;;22.89;100.00
14067;BME280;7108;42.684;23.350;2023-06-24T05:14:50;95442.69;;;22.91;100.00
14067;BME280;7108;42.684;23.350;2023-06-24T05:17:17;95451.19;;;22.97;100.00
14067;BME280;7108;42.684;23.350;2023-06-24T05:19:42;95429.28;;;22.93;100.00
14067;BME280;7108;42.684;23.350;2023-06-24T05:22:09;95426.00;;;22.98;100.00
14067;BME280;7108;42.684;23.350;2023-06-24T05:24:34;95420.78;;;23.04;100.00
14067;BME280;7108;42.684;23.350;2023-06-24T05:27:04;95432.63;;;23.16;100.00
14067;BME280;7108;42.684;23.350;2023-06-24T05:29:31;95426.78;;;23.14;100.00
14067;BME280;7108;42.684;23.350;2023-06-24T05:31:56;95401.97;;;23.02;100.00
14067;BME280;7108;42.684;23.350;2023-06-24T05:34:22;95421.56;;;23.20;100.00
14067;BME280;7108;42.684;23.350;2023-06-24T05:36:47;95423.56;;;23.32;100.00
14067;BME280;7108;42.684;23.350;2023-06-24T05:39:13;95431.06;;;23.31;100.00
14067;BME280;7108;42.684;23.350;2023-06-24T05:41:39;95428.97;;;23.35;100.00
14067;BME280;7108;42.684;23.350;2023-06-24T05:44:06;95414.19;;;23.29;100.00
14067;BME280;7108;42.684;23.350;2023-06-24T05:46:32;95426.03;;;23.42;100.00
14067;BME280;7108;42.684;23.350;2023-06-24T05:48:58;95431.00;;;23.47;100.00
14067;BME280;7108;42.684;23.350;2023-06-24T05:51:23;95419.56;;;23.49;100.00
14067;BME280;7108;42.684;23.350;2023-06-24T05:53:49;95411.09;;;23.43;100.00
14067;BME280;7108;42.684;23.350;2023-06-24T05:56:14;95401.06;;;23.49;100.00
14067;BME280;7108;42.684;23.350;2023-06-24T05:58:40;95415.94;;;23.52;100.00
14067;BME280;7108;42.684;23.350;2023-06-24T06:01:07;95422.69;;;23.63;100.00
14067;BME280;7108;42.684;23.350;2023-06-24T06:03:32;95397.22;;;23.47;100.00
14067;BME280;7108;42.684;23.350;2023-06-24T06:05:57;95428.75;;;23.58;100.00
14067;BME280;7108;42.684;23.350;2023-06-24T06:08:23;95406.72;;;23.58;100.00
14067;BME280;7108;42.684;23.350;2023-06-24T06:10:48;95402.97;;;23.52;100.00
14067;BME280;7108;42.684;23.350;2023-06-24T06:13:14;95398.84;;;23.44;100.00
14067;BME280;7108;42.684;23.350;2023-06-24T06:15:39;95406.38;;;23.56;100.00
14067;BME280;7108;42.684;23.350;2023-06-24T06:18:04;95390.06;;;23.49;100.00
14067;BME280;7108;42.684;23.350;2023-06-24T06:20:30;95410.38;;;23.68;100.00
14067;BME280;7108;42.684;23.350;2023-06-24T06:22:55;95401.88;;;23.62;100.00
14067;BME280;7108;42.684;23.350;2023-06-24T06:25:21;95409.84;;;23.73;100.00
14067;BME280;7108;42.684;23.350;2023-06-24T06:27:46;95405.22;;;23.70;100.00
14067;BME280;7108;42.684;23.350;2023-06-24T06:30:12;95397.66;;;23.74;100.00
14067;BME280;7108;42.684;23.350;2023-06-24T06:32:38;95411.31;;;23.77;100.00
14067;BME280;7108;42.684;23.350;2023-06-24T06:35:04;95397.66;;;23.74;100.00
14067;BME280;7108;42.684;23.350;2023-06-24T06:37:29;95410.88;;;23.91;100.00
14067;BME280;7108;42.684;23.350;2023-06-24T06:39:55;95400.66;;;23.91;100.00
14067;BME280;7108;42.684;23.350;2023-06-24T06:42:20;95408.81;;;23.95;100.00
14067;BME280;7108;42.684;23.350;2023-06-24T06:44:45;95411.25;;;23.93;100.00
14067;BME280;7108;42.684;23.350;2023-06-24T06:47:11;95421.63;;;24.14;100.00
14067;BME280;7108;42.684;23.350;2023-06-24T06:49:36;95416.31;;;24.19;100.00
14067;BME280;7108;42.684;23.350;2023-06-24T06:52:02;95417.41;;;24.22;100.00
14067;BME280;7108;42.684;23.350;2023-06-24T06:54:27;95423.72;;;24.35;100.00
14067;BME280;7108;42.684;23.350;2023-06-24T06:56:53;95412.16;;;24.27;100.00
14067;BME280;7108;42.684;23.350;2023-06-24T06:59:18;95417.22;;;24.29;100.00
14067;BME280;7108;42.684;23.350;2023-06-24T07:01:44;95420.75;;;24.29;100.00
14067;BME280;7108;42.684;23.350;2023-06-24T07:04:09;95420.22;;;24.34;100.00
14067;BME280;7108;42.684;23.350;2023-06-24T07:06:35;95420.22;;;24.34;100.00
14067;BME280;7108;42.684;23.350;2023-06-24T07:09:00;95403.66;;;24.22;100.00
14067;BME280;7108;42.684;23.350;2023-06-24T07:11:26;95421.19;;;24.28;100.00
14067;BME280;7108;42.684;23.350;2023-06-24T07:13:51;95420.22;;;24.34;100.00
14067;BME280;7108;42.684;23.350;2023-06-24T07:16:17;95428.06;;;24.48;100.00
14067;BME280;7108;42.684;23.350;2023-06-24T07:18:43;95423.66;;;24.50;100.00
14067;BME280;7108;42.684;23.350;2023-06-24T07:21:08;95413.81;;;24.49;100.00
14067;BME280;7108;42.684;23.350;2023-06-24T07:23:34;95407.22;;;24.47;100.00
14067;BME280;7108;42.684;23.350;2023-06-24T07:25:59;95408.56;;;24.55;100.00
14067;BME280;7108;42.684;23.350;2023-06-24T07:28:25;95419.31;;;24.74;100.00
14067;BME280;7108;42.684;23.350;2023-06-24T07:30:50;95414.03;;;24.80;100.00
14067;BME280;7108;42.684;23.350;2023-06-24T07:33:15;95386.91;;;24.66;100.00
14067;BME280;7108;42.684;23.350;2023-06-24T07:35:41;95412.38;;;24.82;100.00
14067;BME280;7108;42.684;23.350;2023-06-24T07:38:07;95396.38;;;24.77;100.00
14067;BME280;7108;42.684;23.350;2023-06-24T07:40:32;95409.81;;;24.88;100.00
14067;BME280;7108;42.684;23.350;2023-06-24T07:42:57;95396.47;;;24.86;100.00
14067;BME280;7108;42.684;23.350;2023-06-24T07:45:23;95397.66;;;24.98;100.00
14067;BME280;7108;42.684;23.350;2023-06-24T07:47:49;95407.47;;;25.11;100.00
14067;BME280;7108;42.684;23.350;2023-06-24T07:50:14;95406.72;;;25.11;100.00
14067;BME280;7108;42.684;23.350;2023-06-24T07:52:39;95405.03;;;25.13;100.00
14067;BME280;7108;42.684;23.350;2023-06-24T07:55:05;95404.34;;;25.21;100.00
14067;BME280;7108;42.684;23.350;2023-06-24T07:57:31;95407.75;;;25.25;100.00
14067;BME280;7108;42.684;23.350;2023-06-24T07:59:56;95400.25;;;25.26;100.00
14067;BME280;7108;42.684;23.350;2023-06-24T08:02:22;95414.88;;;25.35;100.00
14067;BME280;7108;42.684;23.350;2023-06-24T08:04:49;95411.69;;;25.37;100.00
14067;BME280;7108;42.684;23.350;2023-06-24T08:07:15;95418.97;;;25.43;100.00
14067;BME280;7108;42.684;23.350;2023-06-24T08:09:40;95415.28;;;25.46;100.00
14067;BME280;7108;42.684;23.350;2023-06-24T08:12:06;95412.72;;;25.52;100.00
14067;BME280;7108;42.684;23.350;2023-06-24T08:14:32;95408.16;;;25.58;100.00
14067;BME280;7108;42.684;23.350;2023-06-24T08:16:57;95400.22;;;25.60;100.00
14067;BME280;7108;42.684;23.350;2023-06-24T08:19:23;95397.34;;;25.63;100.00
14067;BME280;7108;42.684;23.350;2023-06-24T08:21:48;95394.88;;;25.65;100.00
14067;BME280;7108;42.684;23.350;2023-06-24T08:24:14;95421.09;;;25.82;100.00
14067;BME280;7108;42.684;23.350;2023-06-24T08:26:39;95412.88;;;25.91;100.00
14067;BME280;7108;42.684;23.350;2023-06-24T08:29:05;95410.81;;;25.82;100.00
14067;BME280;7108;42.684;23.350;2023-06-24T08:31:31;95397.09;;;25.91;100.00
14067;BME280;7108;42.684;23.350;2023-06-24T08:33:59;95394.97;;;25.95;100.00
14067;BME280;7108;42.684;23.350;2023-06-24T08:36:28;95399.25;;;25.96;100.00
14067;BME280;7108;42.684;23.350;2023-06-24T08:38:54;95385.59;;;25.93;100.00
14067;BME280;7108;42.684;23.350;2023-06-24T08:41:19;95395.28;;;25.97;100.00
14067;BME280;7108;42.684;23.350;2023-06-24T08:43:45;95371.91;;;25.89;100.00
14067;BME280;7108;42.684;23.350;2023-06-24T08:46:12;95377.66;;;26.04;100.00
14067;BME280;7108;42.684;23.350;2023-06-24T08:48:39;95374.94;;;26.13;100.00
14067;BME280;7108;42.684;23.350;2023-06-24T08:51:11;95383.91;;;26.26;100.00
14067;BME280;7108;42.684;23.350;2023-06-24T08:53:38;95370.41;;;26.28;100.00
14067;BME280;7108;42.684;23.350;2023-06-24T08:56:07;95371.34;;;26.34;100.00
14067;BME280;7108;42.684;23.350;2023-06-24T08:58:33;95367.03;;;26.33;100.00
14067;BME280;7108;42.684;23.350;2023-06-24T09:00:59;95370.66;;;26.42;100.00
14067;BME280;7108;42.684;23.350;2023-06-24T09:03:25;95368.38;;;26.49;100.00
14067;BME280;7108;42.684;23.350;2023-06-24T09:05:51;95378.09;;;26.63;100.00
14067;BME280;7108;42.684;23.350;2023-06-24T09:08:16;95370.88;;;26.65;100.00
14067;BME280;7108;42.684;23.350;2023-06-24T09:10:41;95357.06;;;26.65;100.00
14067;BME280;7108;42.684;23.350;2023-06-24T09:13:07;95366.91;;;26.75;100.00
14067;BME280;7108;42.684;23.350;2023-06-24T09:15:37;95361.69;;;26.77;100.00
14067;BME280;7108;42.684;23.350;2023-06-24T09:18:04;95362.47;;;26.87;100.00
14067;BME280;7108;42.684;23.350;2023-06-24T09:20:30;95359.09;;;26.83;100.00
14067;BME280;7108;42.684;23.350;2023-06-24T09:23:01;95361.41;;;26.93;100.00
14067;BME280;7108;42.684;23.350;2023-06-24T09:25:27;95370.81;;;26.96;100.00
14067;BME280;7108;42.684;23.350;2023-06-24T09:27:53;95370.00;;;26.95;100.00
14067;BME280;7108;42.684;23.350;2023-06-24T09:30:23;95365.75;;;27.03;100.00
14067;BME280;7108;42.684;23.350;2023-06-24T09:32:49;95366.53;;;27.04;100.00
14067;BME280;7108;42.684;23.350;2023-06-24T09:35:18;95369.94;;;27.17;100.00
14067;BME280;7108;42.684;23.350;2023-06-24T09:37:55;95369.94;;;27.25;100.00
14067;BME280;7108;42.684;23.350;2023-06-24T09:40:21;95362.56;;;27.31;100.00
14067;BME280;7108;42.684;23.350;2023-06-24T09:42:56;95365.00;;;27.38;100.00
14067;BME280;7108;42.684;23.350;2023-06-24T09:45:24;95368.22;;;27.46;100.00
14067;BME280;7108;42.684;23.350;2023-06-24T09:47:50;95352.22;;;27.41;100.00
14067;BME280;7108;42.684;23.350;2023-06-24T09:50:15;95374.41;;;27.59;100.00
14067;BME280;7108;42.684;23.350;2023-06-24T09:52:43;95357.78;;;27.59;100.00
14067;BME280;7108;42.684;23.350;2023-06-24T09:55:09;95356.53;;;27.69;100.00
14067;BME280;7108;42.684;23.350;2023-06-24T09:57:35;95345.16;;;27.67;100.00
14067;BME280;7108;42.684;23.350;2023-06-24T10:00:01;95354.81;;;27.80;100.00
14067;BME280;7108;42.684;23.350;2023-06-24T10:02:28;95348.50;;;27.88;100.00
14067;BME280;7108;42.684;23.350;2023-06-24T10:04:56;95352.50;;;27.96;100.00
14067;BME280;7108;42.684;23.350;2023-06-24T10:07:21;95335.81;;;28.05;100.00
14067;BME280;7108;42.684;23.350;2023-06-24T10:09:47;95341.78;;;28.22;100.00
14067;BME280;7108;42.684;23.350;2023-06-24T10:12:14;95335.75;;;28.32;100.00
14067;BME280;7108;42.684;23.350;2023-06-24T10:14:39;95335.66;;;28.50;100.00
14067;BME280;7108;42.684;23.350;2023-06-24T10:17:05;95317.78;;;28.51;100.00
14067;BME280;7108;42.684;23.350;2023-06-24T10:19:37;95329.72;;;28.75;100.00
14067;BME280;7108;42.684;23.350;2023-06-24T10:22:07;95324.59;;;28.82;100.00
14067;BME280;7108;42.684;23.350;2023-06-24T10:24:34;95305.25;;;28.88;100.00
14067;BME280;7108;42.684;23.350;2023-06-24T10:29:32;95299.88;;;29.08;100.00
14067;BME280;7108;42.684;23.350;2023-06-24T10:32:02;95284.00;;;29.08;100.00
14067;BME280;7108;42.684;23.350;2023-06-24T10:34:30;95287.94;;;29.16;100.00
14067;BME280;7108;42.684;23.350;2023-06-24T10:37:20;95284.72;;;29.32;100.00
14067;BME280;7108;42.684;23.350;2023-06-24T10:39:51;95291.72;;;29.42;100.00
14067;BME280;7108;42.684;23.350;2023-06-24T10:47:34;95279.69;;;29.59;100.00
14067;BME280;7108;42.684;23.350;2023-06-24T10:50:00;95255.72;;;29.62;100.00
14067;BME280;7108;42.684;23.350;2023-06-24T10:52:26;95258.13;;;29.69;100.00
14067;BME280;7108;42.684;23.350;2023-06-24T10:54:52;95248.38;;;29.59;100.00
14067;BME280;7108;42.684;23.350;2023-06-24T10:57:23;95241.75;;;29.71;100.00
14067;BME280;7108;42.684;23.350;2023-06-24T10:59:50;95238.38;;;29.81;100.00
14067;BME280;7108;42.684;23.350;2023-06-24T11:02:20;95248.97;;;29.91;100.00
14067;BME280;7108;42.684;23.350;2023-06-24T11:04:50;95241.72;;;29.85;100.00
14067;BME280;7108;42.684;23.350;2023-06-24T11:07:23;95233.34;;;29.94;100.00
14067;BME280;7108;42.684;23.350;2023-06-24T11:09:50;95251.00;;;30.11;100.00
14067;BME280;7108;42.684;23.350;2023-06-24T11:12:17;95245.00;;;30.12;95.45
14067;BME280;7108;42.684;23.350;2023-06-24T11:14:42;95227.81;;;30.14;100.00
14067;BME280;7108;42.684;23.350;2023-06-24T11:17:08;95243.56;;;30.37;96.08
14067;BME280;7108;42.684;23.350;2023-06-24T11:19:34;95248.75;;;30.44;100.00
14067;BME280;7108;42.684;23.350;2023-06-24T11:22:04;95239.72;;;30.49;88.16
14067;BME280;7108;42.684;23.350;2023-06-24T11:24:30;95245.22;;;30.63;94.88
14067;BME280;7108;42.684;23.350;2023-06-24T11:26:56;95247.81;;;30.66;91.00
14067;BME280;7108;42.684;23.350;2023-06-24T11:29:28;95239.03;;;30.73;95.01
14067;BME280;7108;42.684;23.350;2023-06-24T11:31:54;95240.91;;;30.82;88.32
14067;BME280;7108;42.684;23.350;2023-06-24T11:34:21;95231.94;;;30.72;81.45
14067;BME280;7108;42.684;23.350;2023-06-24T11:36:47;95240.78;;;30.71;82.62
14067;BME280;7108;42.684;23.350;2023-06-24T11:39:27;95253.22;;;30.75;80.78
14067;BME280;7108;42.684;23.350;2023-06-24T11:41:53;95248.06;;;30.49;73.18
14067;BME280;7108;42.684;23.350;2023-06-24T11:44:25;95237.38;;;30.27;73.19
14067;BME280;7108;42.684;23.350;2023-06-24T11:46:50;95230.63;;;29.99;77.67
14067;BME280;7108;42.684;23.350;2023-06-24T11:49:16;95227.47;;;29.92;79.33
14067;BME280;7108;42.684;23.350;2023-06-24T11:51:49;95237.44;;;29.84;78.91
14067;BME280;7108;42.684;23.350;2023-06-24T11:54:20;95211.97;;;29.57;89.00
14067;BME280;7108;42.684;23.350;2023-06-24T11:56:52;95214.28;;;29.44;96.31
14067;BME280;7108;42.684;23.350;2023-06-24T11:59:19;95226.13;;;29.44;95.18
14067;BME280;7108;42.684;23.350;2023-06-24T12:01:58;95206.44;;;29.42;91.87
14067;BME280;7108;42.684;23.350;2023-06-24T12:04:29;95193.56;;;29.30;100.00
14067;BME280;7108;42.684;23.350;2023-06-24T12:06:54;95200.66;;;29.31;96.28
14067;BME280;7108;42.684;23.350;2023-06-24T12:09:20;95186.31;;;29.33;100.00
14067;BME280;7108;42.684;23.350;2023-06-24T12:11:46;95184.28;;;29.33;92.79
14067;BME280;7108;42.684;23.350;2023-06-24T12:14:11;95184.00;;;29.31;100.00
14067;BME280;7108;42.684;23.350;2023-06-24T12:16:38;95178.06;;;29.24;100.00
14067;BME280;7108;42.684;23.350;2023-06-24T12:19:04;95182.25;;;29.19;100.00
14067;BME280;7108;42.684;23.350;2023-06-24T12:21:29;95177.66;;;29.02;100.00
14067;BME280;7108;42.684;23.350;2023-06-24T12:23:54;95176.47;;;28.94;99.79
14067;BME280;7108;42.684;23.350;2023-06-24T12:26:20;95174.19;;;28.93;100.00
14067;BME280;7108;42.684;23.350;2023-06-24T12:28:45;95175.91;;;28.90;96.52
14067;BME280;7108;42.684;23.350;2023-06-24T12:31:11;95184.59;;;28.83;100.00
14067;BME280;7108;42.684;23.350;2023-06-24T12:33:36;95177.72;;;28.79;100.00
14067;BME280;7108;42.684;23.350;2023-06-24T12:36:02;95174.53;;;28.71;100.00
14067;BME280;7108;42.684;23.350;2023-06-24T12:38:27;95175.66;;;28.65;100.00
14067;BME280;7108;42.684;23.350;2023-06-24T12:40:53;95183.56;;;28.57;100.00
14067;BME280;7108;42.684;23.350;2023-06-24T12:43:18;95182.56;;;28.46;100.00
14067;BME280;7108;42.684;23.350;2023-06-24T12:45:44;95208.88;;;28.51;100.00
14067;BME280;7108;42.684;23.350;2023-06-24T12:48:10;95213.13;;;28.37;100.00
14067;BME280;7108;42.684;23.350;2023-06-24T12:50:36;95223.91;;;28.35;100.00
14067;BME280;7108;42.684;23.350;2023-06-24T12:53:01;95221.63;;;28.34;100.00
14067;BME280;7108;42.684;23.350;2023-06-24T12:55:29;95246.69;;;28.39;100.00
14067;BME280;7108;42.684;23.350;2023-06-24T12:57:54;95248.59;;;28.33;100.00
14067;BME280;7108;42.684;23.350;2023-06-24T13:00:21;95251.53;;;28.30;100.00
14067;BME280;7108;42.684;23.350;2023-06-24T13:02:47;95245.41;;;28.26;100.00
14067;BME280;7108;42.684;23.350;2023-06-24T13:05:12;95228.94;;;28.13;100.00